createdAt,value
2023-03-03T00:00:36.496Z,-2.75
2023-03-03T00:05:40.672Z,-2.75
2023-03-03T00:10:47.060Z,-2.65
2023-03-03T00:15:51.903Z,-2.60
2023-03-03T00:20:57.908Z,-2.53
2023-03-03T00:26:03.827Z,-2.57
2023-03-03T00:31:16.584Z,-2.66
2023-03-03T00:36:32.841Z,-2.53
2023-03-03T00:41:40.436Z,-2.45
2023-03-03T00:46:45.198Z,-2.42
2023-03-03T00:51:49.389Z,-2.43
2023-03-03T00:56:54.726Z,-2.42
2023-03-03T01:01:59.316Z,-2.39
2023-03-03T01:07:03.359Z,-2.37
2023-03-03T01:12:09.292Z,-2.35
2023-03-03T01:17:13.461Z,-2.33
2023-03-03T01:22:17.795Z,-2.38
2023-03-03T01:27:23.291Z,-2.38
2023-03-03T01:32:27.702Z,-2.30
2023-03-03T01:37:32.024Z,-2.18
2023-03-03T01:42:37.598Z,-2.01
2023-03-03T01:47:43.977Z,-1.94
2023-03-03T01:52:48.566Z,-1.79
2023-03-03T01:57:59.162Z,-1.71
2023-03-03T02:03:03.352Z,-1.62
2023-03-03T02:08:08.790Z,-1.54
2023-03-03T02:13:15.862Z,-1.56
2023-03-03T02:18:21.313Z,-1.43
2023-03-03T02:23:32.040Z,-1.42
2023-03-03T02:28:39.995Z,-1.29
2023-03-03T02:33:49.152Z,-1.21
2023-03-03T02:38:59.946Z,-1.05
2023-03-03T02:44:06.962Z,-1.11
2023-03-03T02:49:13.025Z,-0.96
2023-03-03T02:54:18.605Z,-0.86
2023-03-03T02:59:24.342Z,-0.83
2023-03-03T03:04:29.582Z,-0.92
2023-03-03T03:09:33.655Z,-0.81
2023-03-03T03:14:39.795Z,-0.85
2023-03-03T03:19:44.642Z,-0.86
2023-03-03T03:24:48.882Z,-0.87
2023-03-03T03:29:54.586Z,-0.89
2023-03-03T03:34:59.437Z,-0.86
2023-03-03T03:40:03.866Z,-0.82
2023-03-03T03:45:11.118Z,-0.80
2023-03-03T03:50:15.939Z,-0.81
2023-03-03T03:55:22.704Z,-0.64
2023-03-03T04:00:28.816Z,-0.66
2023-03-03T04:05:36.510Z,-0.52
2023-03-03T04:10:41.324Z,-0.57
2023-03-03T04:15:46.887Z,-0.44
2023-03-03T04:20:52.427Z,-0.51
2023-03-03T04:25:57.074Z,-0.48
2023-03-03T04:31:03.382Z,-0.43
2023-03-03T04:36:09.854Z,-0.41
2023-03-03T04:41:17.565Z,-0.49
2023-03-03T04:46:23.996Z,-0.39
2023-03-03T04:51:28.971Z,-0.43
2023-03-03T04:56:33.583Z,-0.45
2023-03-03T05:01:39.316Z,-0.47
2023-03-03T05:06:43.644Z,-0.46
2023-03-03T05:11:47.706Z,-0.42
2023-03-03T05:16:53.171Z,-0.46
2023-03-03T05:21:57.624Z,-0.33
2023-03-03T05:27:01.550Z,-0.37
2023-03-03T05:32:06.941Z,-0.34
2023-03-03T05:37:11.094Z,-0.30
2023-03-03T05:42:15.704Z,-0.29
2023-03-03T05:47:21.100Z,-0.22
2023-03-03T05:52:25.575Z,-0.07
2023-03-03T05:57:29.783Z,-0.20
2023-03-03T06:02:35.406Z,-0.15
2023-03-03T06:07:39.582Z,-0.03
2023-03-03T06:12:43.471Z,0.05
2023-03-03T06:17:49.309Z,0.01
2023-03-03T06:22:53.443Z,0.03
2023-03-03T06:27:58.073Z,-0.09
2023-03-03T06:33:03.614Z,-0.03
2023-03-03T06:38:07.563Z,-0.01
2023-03-03T06:43:11.799Z,-0.05
2023-03-03T06:48:17.300Z,-0.14
2023-03-03T06:53:21.516Z,-0.12
2023-03-03T06:58:27.669Z,-0.19
2023-03-03T07:03:35.721Z,-0.01
2023-03-03T07:08:41.578Z,-0.07
2023-03-03T07:13:47.924Z,-0.10
2023-03-03T07:18:54.947Z,-0.13
2023-03-03T07:23:59.507Z,-0.10
2023-03-03T07:29:15.553Z,-0.10
2023-03-03T07:34:24.419Z,-0.02
2023-03-03T07:39:39.145Z,-0.09
2023-03-03T07:44:47.008Z,0.05
2023-03-03T07:49:53.416Z,-0.10
2023-03-03T07:54:59.249Z,-0.04
2023-03-03T08:00:30.485Z,-0.19
2023-03-03T08:05:38.859Z,-0.20
2023-03-03T08:10:45.465Z,-0.21
2023-03-03T08:15:51.739Z,-0.28
2023-03-03T08:20:59.521Z,-0.24
2023-03-03T08:26:03.444Z,-0.07
2023-03-03T08:31:19.978Z,-0.10
2023-03-03T08:36:28.128Z,-0.11
2023-03-03T08:41:32.347Z,-0.04
2023-03-03T08:46:36.351Z,0.08
2023-03-03T08:51:42.064Z,0.19
2023-03-03T08:56:46.044Z,0.32
2023-03-03T09:01:50.358Z,0.58
2023-03-03T09:06:55.855Z,0.47
2023-03-03T09:12:03.178Z,0.51
2023-03-03T09:17:19.274Z,0.69
2023-03-03T09:22:26.934Z,0.80
2023-03-03T09:27:33.158Z,0.70
2023-03-03T09:32:39.458Z,0.72
2023-03-03T09:37:45.338Z,0.83
2023-03-03T09:43:00.723Z,0.77
2023-03-03T09:48:29.239Z,0.79
2023-03-03T09:53:48.956Z,0.66
2023-03-03T09:59:03.195Z,0.73
2023-03-03T10:04:38.015Z,0.91
2023-03-03T10:09:59.518Z,0.77
2023-03-03T10:15:16.809Z,1.02
2023-03-03T10:20:49.052Z,1.15
2023-03-03T10:26:07.217Z,1.40
2023-03-03T10:31:20.652Z,1.53
2023-03-03T10:36:39.742Z,1.45
2023-03-03T10:41:55.845Z,1.84
2023-03-03T10:47:13.555Z,1.75
2023-03-03T10:52:34.588Z,1.73
2023-03-03T10:57:45.952Z,1.69
2023-03-03T11:03:14.561Z,2.04
2023-03-03T11:08:20.979Z,2.37
2023-03-03T11:13:33.981Z,2.02
2023-03-03T11:18:52.162Z,1.85
2023-03-03T11:24:08.192Z,2.00
2023-03-03T11:29:34.741Z,2.18
2023-03-03T11:34:51.660Z,2.09
2023-03-03T11:39:59.143Z,1.80
2023-03-03T11:45:13.498Z,1.91
2023-03-03T11:50:22.088Z,2.11
2023-03-03T11:55:29.144Z,2.10
2023-03-03T12:00:38.486Z,1.89
2023-03-03T12:05:50.577Z,1.78
2023-03-03T12:11:00.584Z,1.90
2023-03-03T12:16:13.595Z,1.77
2023-03-03T12:21:27.228Z,2.10
2023-03-03T12:26:37.508Z,2.07
2023-03-03T12:31:50.184Z,2.01
2023-03-03T12:37:12.052Z,1.98
2023-03-03T12:42:24.946Z,1.80
2023-03-03T12:47:34.657Z,1.84
2023-03-03T12:52:47.765Z,1.75
2023-03-03T12:57:59.313Z,1.71
2023-03-03T13:03:12.840Z,1.70
2023-03-03T13:08:44.161Z,1.75
2023-03-03T13:13:54.088Z,2.11
2023-03-03T13:19:04.725Z,1.95
2023-03-03T13:24:17.104Z,1.83
2023-03-03T13:29:24.300Z,1.74
2023-03-03T13:34:41.312Z,1.75
2023-03-03T13:39:54.571Z,1.76
2023-03-03T13:44:58.687Z,1.57
2023-03-03T13:50:20.115Z,1.65
2023-03-03T13:55:28.794Z,1.53
2023-03-03T14:00:49.399Z,1.61
2023-03-03T14:06:03.295Z,1.67
2023-03-03T14:11:11.841Z,1.68
2023-03-03T14:16:20.192Z,1.74
2023-03-03T14:21:30.621Z,1.67
2023-03-03T14:26:46.231Z,1.69
2023-03-03T14:31:50.326Z,1.61
2023-03-03T14:37:09.469Z,1.72
2023-03-03T14:42:15.667Z,1.67
2023-03-03T14:47:24.243Z,1.51
2023-03-03T14:52:31.203Z,1.41
2023-03-03T14:57:47.268Z,1.41
2023-03-03T15:03:02.990Z,1.25
2023-03-03T15:08:15.755Z,1.28
2023-03-03T15:13:35.103Z,1.15
2023-03-03T15:19:06.896Z,1.18
2023-03-03T15:24:18.381Z,1.02
2023-03-03T15:29:26.094Z,0.99
2023-03-03T15:34:38.908Z,0.98
2023-03-03T15:39:50.255Z,0.87
2023-03-03T15:45:00.707Z,0.81
2023-03-03T15:50:16.440Z,0.80
2023-03-03T15:55:35.113Z,0.91
2023-03-03T16:00:49.646Z,0.91
2023-03-03T16:05:55.302Z,0.94
2023-03-03T16:11:08.026Z,0.79
2023-03-03T16:16:21.506Z,0.64
2023-03-03T16:21:35.655Z,0.43
2023-03-03T16:26:49.661Z,0.45
2023-03-03T16:31:57.883Z,0.46
2023-03-03T16:37:08.520Z,0.48
2023-03-03T16:42:23.706Z,0.60
2023-03-03T16:47:43.771Z,0.67
2023-03-03T16:52:50.785Z,0.54
2023-03-03T16:58:06.815Z,0.53
2023-03-03T17:03:22.682Z,0.51
2023-03-03T17:08:50.966Z,0.43
2023-03-03T17:14:08.162Z,0.51
2023-03-03T17:19:23.886Z,0.58
2023-03-03T17:24:37.505Z,0.54
2023-03-03T17:29:51.812Z,0.63
2023-03-03T17:35:09.784Z,0.50
2023-03-03T17:40:37.832Z,0.44
2023-03-03T17:45:46.654Z,0.26
2023-03-03T17:51:07.048Z,0.31
2023-03-03T17:56:19.137Z,0.31
2023-03-03T18:01:35.851Z,0.27
2023-03-03T18:07:10.079Z,0.29
2023-03-03T18:12:19.709Z,0.41
2023-03-03T18:17:36.512Z,0.40
2023-03-03T18:22:44.949Z,0.35
2023-03-03T18:28:10.085Z,0.33
2023-03-03T18:33:17.357Z,0.43
2023-03-03T18:38:44.068Z,0.31
2023-03-03T18:43:59.420Z,0.30
2023-03-03T18:49:06.040Z,0.26
2023-03-03T18:54:30.585Z,0.24
2023-03-03T18:59:53.912Z,0.28
2023-03-03T19:05:10.426Z,0.31
2023-03-03T19:10:53.037Z,0.30
2023-03-03T19:15:59.382Z,0.37
2023-03-03T19:21:07.292Z,0.32
2023-03-03T19:26:32.818Z,0.42
2023-03-03T19:31:42.711Z,0.39
2023-03-03T19:37:01.064Z,0.36
2023-03-03T19:42:14.115Z,0.24
2023-03-03T19:47:26.218Z,0.18
2023-03-03T19:52:38.116Z,0.38
2023-03-03T19:57:51.562Z,0.29
2023-03-03T20:03:20.477Z,0.37
2023-03-03T20:08:30.527Z,0.29
2023-03-03T20:13:55.147Z,0.21
2023-03-03T20:19:11.699Z,0.31
2023-03-03T20:24:39.984Z,0.14
2023-03-03T20:30:15.666Z,0.23
2023-03-03T20:35:26.607Z,0.13
2023-03-03T20:40:36.176Z,0.19
2023-03-03T20:45:49.954Z,0.32
2023-03-03T20:51:01.552Z,0.20
2023-03-03T20:56:11.941Z,0.19
2023-03-03T21:01:21.460Z,0.33
2023-03-03T21:06:38.824Z,0.33
2023-03-03T21:11:45.335Z,0.20
2023-03-03T21:16:50.210Z,0.10
2023-03-03T21:21:55.619Z,0.07
2023-03-03T21:27:01.978Z,0.08
2023-03-03T21:32:07.718Z,0.00
2023-03-03T21:37:13.930Z,-0.03
2023-03-03T21:42:30.198Z,-0.08
2023-03-03T21:47:34.459Z,-0.03
2023-03-03T21:52:38.580Z,-0.02
2023-03-03T21:57:44.621Z,-0.08
2023-03-03T22:02:48.902Z,-0.06
2023-03-03T22:07:52.997Z,-0.14
2023-03-03T22:12:58.527Z,-0.14
2023-03-03T22:18:02.788Z,-0.25
2023-03-03T22:23:06.906Z,-0.17
2023-03-03T22:28:12.301Z,-0.15
2023-03-03T22:33:16.546Z,-0.20
2023-03-03T22:38:20.797Z,-0.31
2023-03-03T22:43:27.461Z,-0.28
2023-03-03T22:48:31.877Z,-0.17
2023-03-03T22:53:36.191Z,-0.20
2023-03-03T22:58:42.317Z,-0.12
2023-03-03T23:03:46.628Z,-0.22
2023-03-03T23:08:50.730Z,-0.21
2023-03-03T23:13:56.238Z,-0.18
2023-03-03T23:19:00.161Z,-0.14
2023-03-03T23:24:04.877Z,-0.12
2023-03-03T23:29:10.328Z,-0.12
2023-03-03T23:34:14.219Z,-0.05
2023-03-03T23:39:18.333Z,-0.18
2023-03-03T23:44:24.554Z,-0.15
2023-03-03T23:49:28.652Z,-0.11
2023-03-03T23:54:32.914Z,-0.19
2023-03-03T23:59:38.584Z,-0.15
